Time;durP1;ratioP1;P1;durP2;ratioP2;P2;SDS_P1;SDS_P2;PMS_P1;PMS_P2;Temp;Humidity;BMP_temperature;BMP_pressure;BME280_temperature;BME280_humidity;BME280_pressure;Samples;Min_cycle;Max_cycle;Signal;HPM_P1;HPM_P2
2024/02/25 00:02:14;;;;;;;12.57;6.13;;;;;;;-146.29;100.00;59205.81;5036589;28;20504;-70
2024/02/25 00:04:39;;;;;;;13.67;6.17;;;;;;;-146.29;100.00;59205.81;5030855;28;20232;-71
2024/02/25 00:07:04;;;;;;;10.57;6.17;;;;;;;-146.29;100.00;59205.81;5027483;28;20187;-70
2024/02/25 00:09:30;;;;;;;12.17;5.50;;;;;;;-146.29;100.00;59205.81;5028830;28;20940;-69
2024/02/25 00:11:55;;;;;;;10.70;5.60;;;;;;;-146.29;100.00;59205.81;5027297;28;20188;-72
2024/02/25 00:14:21;;;;;;;7.40;4.93;;;;;;;-146.29;100.00;59205.81;5034397;28;20214;-71
2024/02/25 00:16:46;;;;;;;12.50;5.43;;;;;;;-146.29;100.00;59205.81;5032949;28;20188;-69
2024/02/25 00:19:12;;;;;;;5.60;4.90;;;;;;;-146.29;100.00;59205.81;5035611;28;20752;-69
2024/02/25 00:21:37;;;;;;;6.50;5.00;;;;;;;-146.29;100.00;59205.81;5029305;28;20190;-71
2024/02/25 00:24:03;;;;;;;9.20;5.20;;;;;;;-146.29;100.00;59205.81;5029224;28;20317;-71
2024/02/25 00:26:28;;;;;;;6.10;4.10;;;;;;;-146.29;100.00;59205.81;5035986;28;20650;-73
2024/02/25 00:28:53;;;;;;;5.97;4.37;;;;;;;-146.29;100.00;59205.81;5027943;28;20648;-69
2024/02/25 00:31:19;;;;;;;4.37;3.80;;;;;;;-146.29;100.00;59205.81;5027504;28;20270;-70
2024/02/25 00:33:46;;;;;;;7.73;4.33;;;;;;;-146.29;100.00;59205.81;5028425;28;20243;-71
2024/02/25 00:36:11;;;;;;;8.00;4.60;;;;;;;-146.29;100.00;59205.81;5055016;28;20202;-70
2024/02/25 00:38:37;;;;;;;7.73;4.97;;;;;;;-146.29;100.00;59205.81;5028474;28;20783;-70
2024/02/25 00:41:02;;;;;;;7.50;4.97;;;;;;;-146.29;100.00;59205.81;5040433;28;20179;-70
2024/02/25 00:43:28;;;;;;;7.80;4.70;;;;;;;-146.29;100.00;59205.81;5033262;28;20321;-71
2024/02/25 00:45:54;;;;;;;13.10;4.30;;;;;;;-146.29;100.00;59205.81;5040337;28;20775;-69
2024/02/25 00:48:19;;;;;;;7.97;4.90;;;;;;;-146.29;100.00;59205.81;5039817;28;20429;-71
2024/02/25 00:50:45;;;;;;;6.33;4.60;;;;;;;-146.29;100.00;59205.81;5029128;28;20669;-69
2024/02/25 00:53:10;;;;;;;7.27;4.80;;;;;;;-146.29;100.00;59205.81;5034574;28;20862;-70
2024/02/25 00:55:36;;;;;;;7.03;4.60;;;;;;;-146.29;100.00;59205.81;5033974;28;20215;-70
2024/02/25 00:58:01;;;;;;;6.50;4.50;;;;;;;-146.29;100.00;59205.81;5039997;28;20187;-70
2024/02/25 01:00:27;;;;;;;11.80;4.40;;;;;;;-146.29;100.00;59205.81;5032190;28;20183;-70
2024/02/25 01:02:52;;;;;;;5.50;4.43;;;;;;;-146.29;100.00;59205.81;5028303;28;20233;-71
2024/02/25 01:05:17;;;;;;;10.40;4.57;;;;;;;-146.29;100.00;59205.81;5035028;28;20881;-69
2024/02/25 01:07:43;;;;;;;7.03;5.07;;;;;;;-146.29;100.00;59205.81;5027760;28;20794;-70
2024/02/25 01:10:09;;;;;;;6.23;4.90;;;;;;;-146.29;100.00;59205.81;5028097;28;20180;-71
2024/02/25 01:12:35;;;;;;;8.27;5.13;;;;;;;-146.29;100.00;59205.81;5032100;28;20445;-70
2024/02/25 01:15:00;;;;;;;4.70;3.93;;;;;;;-146.29;100.00;59205.81;5027728;28;20204;-70
2024/02/25 01:17:26;;;;;;;5.30;3.50;;;;;;;-146.29;100.00;59205.81;5027591;28;20870;-70
2024/02/25 01:19:51;;;;;;;4.97;3.87;;;;;;;-146.29;100.00;59205.81;5026213;28;20179;-72
2024/02/25 01:22:17;;;;;;;6.17;3.50;;;;;;;-146.29;100.00;59205.81;5015056;28;20265;-73
2024/02/25 01:24:42;;;;;;;5.57;3.10;;;;;;;-146.29;100.00;59205.81;5042425;28;20257;-72
2024/02/25 01:27:08;;;;;;;5.23;3.70;;;;;;;-146.29;100.00;59205.81;5042716;28;20183;-70
2024/02/25 01:29:33;;;;;;;4.20;3.33;;;;;;;-146.29;100.00;59205.81;5035596;28;20262;-70
2024/02/25 01:31:59;;;;;;;3.40;2.70;;;;;;;-146.29;100.00;59205.81;5034964;28;20202;-70
2024/02/25 01:34:30;;;;;;;3.10;2.70;;;;;;;-146.29;100.00;59205.81;5034884;28;20586;-69
2024/02/25 01:36:55;;;;;;;6.70;2.90;;;;;;;-146.29;100.00;59205.81;5022956;28;20190;-71
2024/02/25 01:39:22;;;;;;;3.67;3.00;;;;;;;-146.29;100.00;59205.81;5026627;28;20435;-71
2024/02/25 01:41:53;;;;;;;3.00;2.57;;;;;;;-146.29;100.00;59205.81;5018780;28;20188;-70
2024/02/25 01:44:18;;;;;;;3.37;2.97;;;;;;;-146.29;100.00;59205.81;5027919;28;20895;-69
2024/02/25 01:46:45;;;;;;;4.80;3.47;;;;;;;-146.29;100.00;59205.81;5032239;28;20510;-71
2024/02/25 01:49:14;;;;;;;9.77;3.30;;;;;;;-146.29;100.00;59205.81;5036931;28;20179;-70
2024/02/25 01:51:40;;;;;;;5.30;3.40;;;;;;;-146.29;100.00;59205.81;5027796;28;20538;-69
2024/02/25 01:54:05;;;;;;;3.70;2.87;;;;;;;-146.29;100.00;59205.81;5035593;28;20990;-70
2024/02/25 01:56:31;;;;;;;5.20;3.30;;;;;;;-146.29;100.00;59205.81;5027568;28;20719;-71
2024/02/25 01:58:57;;;;;;;3.93;3.03;;;;;;;-146.29;100.00;59205.81;5026102;28;20826;-71
2024/02/25 02:01:22;;;;;;;2.80;2.50;;;;;;;-146.29;100.00;59205.81;5024263;28;20226;-70
2024/02/25 02:03:48;;;;;;;2.83;2.33;;;;;;;-146.29;100.00;59205.81;5021485;28;20203;-69
2024/02/25 02:06:14;;;;;;;3.50;2.63;;;;;;;-146.29;100.00;59205.81;5031829;28;20630;-69
2024/02/25 02:08:39;;;;;;;4.60;2.80;;;;;;;-146.29;100.00;59205.81;5034994;28;20422;-70
2024/02/25 02:11:21;;;;;;;3.17;2.40;;;;;;;-146.29;100.00;59205.81;5034322;28;20653;-71
2024/02/25 02:13:47;;;;;;;3.03;2.60;;;;;;;-146.29;100.00;59205.81;5029929;28;20214;-71
2024/02/25 02:16:13;;;;;;;3.53;2.43;;;;;;;-146.29;100.00;59205.81;5031421;28;20446;-70
2024/02/25 02:18:42;;;;;;;3.50;3.00;;;;;;;-146.29;100.00;59205.81;5034228;28;20788;-69
2024/02/25 02:21:09;;;;;;;3.07;2.70;;;;;;;-146.29;100.00;59205.81;5038134;28;20938;-70
2024/02/25 02:23:35;;;;;;;4.27;2.70;;;;;;;-146.29;100.00;59205.81;5036524;28;20429;-68
2024/02/25 02:26:00;;;;;;;3.07;2.77;;;;;;;-146.29;100.00;59205.81;5029113;28;20497;-68
2024/02/25 02:28:26;;;;;;;3.97;2.90;;;;;;;-146.29;100.00;59205.81;5029109;28;20418;-71
2024/02/25 02:30:51;;;;;;;2.80;2.60;;;;;;;-146.29;100.00;59205.81;5029974;28;20192;-70
2024/02/25 02:33:17;;;;;;;3.77;2.90;;;;;;;-146.29;100.00;59205.81;5038459;28;20720;-71
2024/02/25 02:35:42;;;;;;;3.40;3.10;;;;;;;-146.29;100.00;59205.81;5028961;28;20204;-72
2024/02/25 02:38:10;;;;;;;3.57;2.83;;;;;;;-146.29;100.00;59205.81;5028258;28;20199;-70
2024/02/25 02:40:42;;;;;;;3.40;3.00;;;;;;;-146.29;100.00;59205.81;5028287;28;20191;-69
2024/02/25 02:43:07;;;;;;;2.90;2.60;;;;;;;-146.29;100.00;59205.81;5030529;28;21596;-69
2024/02/25 02:45:33;;;;;;;3.40;2.87;;;;;;;-146.29;100.00;59205.81;5029467;28;20434;-70
2024/02/25 02:47:58;;;;;;;5.87;2.67;;;;;;;-146.29;100.00;59205.81;5030376;28;20179;-70
2024/02/25 02:50:24;;;;;;;4.00;2.70;;;;;;;-146.29;100.00;59205.81;5032743;28;20181;-68
2024/02/25 02:52:49;;;;;;;3.87;3.20;;;;;;;-146.29;100.00;59205.81;5032172;28;20184;-67
2024/02/25 02:55:15;;;;;;;4.00;3.13;;;;;;;-146.29;100.00;59205.81;5029819;28;20215;-72
2024/02/25 02:57:41;;;;;;;3.00;2.50;;;;;;;-146.29;100.00;59205.81;5033844;28;20183;-71
2024/02/25 03:00:07;;;;;;;3.00;2.70;;;;;;;-146.29;100.00;59205.81;5038194;28;20184;-71
2024/02/25 03:02:33;;;;;;;9.70;3.70;;;;;;;-146.29;100.00;59205.81;5029012;28;20611;-70
2024/02/25 03:04:59;;;;;;;4.00;3.10;;;;;;;-146.29;100.00;59205.81;5029360;28;21058;-69
2024/02/25 03:07:26;;;;;;;5.47;2.87;;;;;;;-146.29;100.00;59205.81;5029855;28;20430;-70
2024/02/25 03:09:52;;;;;;;5.40;2.90;;;;;;;-146.29;100.00;59205.81;5029884;28;20418;-71
2024/02/25 03:12:17;;;;;;;3.27;2.60;;;;;;;-146.29;100.00;59205.81;5029932;28;20479;-69
2024/02/25 03:14:43;;;;;;;3.03;2.73;;;;;;;-146.29;100.00;59205.81;5034539;28;20248;-69
2024/02/25 03:17:08;;;;;;;2.83;2.63;;;;;;;-146.29;100.00;59205.81;5028464;28;20187;-69
2024/02/25 03:19:34;;;;;;;3.50;3.10;;;;;;;-146.29;100.00;59205.81;5029571;28;20191;-70
2024/02/25 03:22:00;;;;;;;3.00;2.77;;;;;;;-146.29;100.00;59205.81;5031009;28;20191;-71
2024/02/25 03:24:25;;;;;;;3.00;2.57;;;;;;;-146.29;100.00;59205.81;5029408;28;20951;-71
2024/02/25 03:26:51;;;;;;;2.90;2.60;;;;;;;-146.29;100.00;59205.81;5032760;28;20249;-70
2024/02/25 03:29:17;;;;;;;4.23;2.80;;;;;;;-146.29;100.00;59205.81;5029737;28;20191;-72
2024/02/25 03:31:43;;;;;;;3.23;2.60;;;;;;;-146.29;100.00;59205.81;5041143;28;20244;-72
2024/02/25 03:34:09;;;;;;;7.10;4.13;;;;;;;-146.29;100.00;59205.81;5029716;28;20474;-70
2024/02/25 03:36:35;;;;;;;3.37;2.87;;;;;;;-146.29;100.00;59205.81;5029030;28;20294;-70
2024/02/25 03:39:00;;;;;;;3.57;2.93;;;;;;;-146.29;100.00;59205.81;5031334;28;20429;-70
2024/02/25 03:41:26;;;;;;;3.97;3.00;;;;;;;-146.29;100.00;59205.81;5036586;28;20191;-69
2024/02/25 03:43:51;;;;;;;3.47;3.00;;;;;;;-146.29;100.00;59205.81;5029102;28;20206;-70
2024/02/25 03:46:17;;;;;;;3.67;3.20;;;;;;;-146.29;100.00;59205.81;5030198;28;20194;-69
2024/02/25 03:48:42;;;;;;;4.50;2.80;;;;;;;-146.29;100.00;59205.81;5031998;28;20203;-70
2024/02/25 03:51:08;;;;;;;2.93;2.63;;;;;;;-146.29;100.00;59205.81;5027791;28;20179;-71
2024/02/25 03:53:33;;;;;;;3.30;2.50;;;;;;;-146.29;100.00;59205.81;5044142;28;20187;-70
2024/02/25 03:55:59;;;;;;;4.17;2.73;;;;;;;-146.29;100.00;59205.81;5028507;28;20207;-69
2024/02/25 03:58:24;;;;;;;3.37;3.07;;;;;;;-146.29;100.00;59205.81;5036842;28;20656;-71
2024/02/25 04:00:50;;;;;;;2.83;2.50;;;;;;;-146.29;100.00;59205.81;5028352;28;20263;-71
2024/02/25 04:03:15;;;;;;;5.30;2.90;;;;;;;-146.29;100.00;59205.81;5029445;28;20187;-71
2024/02/25 04:05:41;;;;;;;5.50;2.90;;;;;;;-146.29;100.00;59205.81;5029265;28;20199;-69
2024/02/25 04:08:06;;;;;;;3.50;3.00;;;;;;;-146.29;100.00;59205.81;5029045;28;20262;-69
2024/02/25 04:10:32;;;;;;;5.40;2.80;;;;;;;-146.29;100.00;59205.81;5028129;28;20192;-69
2024/02/25 04:12:57;;;;;;;5.53;2.40;;;;;;;-146.29;100.00;59205.81;5031323;28;20186;-71
2024/02/25 04:15:23;;;;;;;3.03;2.70;;;;;;;-146.29;100.00;59205.81;5028231;28;20212;-70
2024/02/25 04:17:48;;;;;;;3.30;2.80;;;;;;;-146.29;100.00;59205.81;5028901;28;20669;-69
2024/02/25 04:20:14;;;;;;;2.97;2.60;;;;;;;-146.29;100.00;59205.81;5027051;28;20207;-69
2024/02/25 04:22:40;;;;;;;4.30;2.67;;;;;;;-146.29;100.00;59205.81;5027542;28;20180;-69
2024/02/25 04:25:05;;;;;;;2.93;2.63;;;;;;;-146.29;100.00;59205.81;5027532;28;20752;-71
2024/02/25 04:27:31;;;;;;;3.00;2.43;;;;;;;-146.29;100.00;59205.81;5029178;28;20609;-69
2024/02/25 04:29:56;;;;;;;3.30;2.73;;;;;;;-146.29;100.00;59205.81;5018750;28;20212;-70
2024/02/25 04:32:22;;;;;;;3.10;2.53;;;;;;;-146.29;100.00;59205.81;5028020;28;20294;-69
2024/02/25 04:34:47;;;;;;;4.03;2.63;;;;;;;-146.29;100.00;59205.81;5022538;28;20204;-72
2024/02/25 04:37:13;;;;;;;2.80;2.50;;;;;;;-146.29;100.00;59205.81;5020967;28;20555;-70
2024/02/25 04:39:40;;;;;;;2.90;2.70;;;;;;;-146.29;100.00;59205.81;5027156;28;20184;-72
2024/02/25 04:42:06;;;;;;;4.20;2.80;;;;;;;-146.29;100.00;59205.81;5028154;28;21754;-70
2024/02/25 04:44:31;;;;;;;3.20;2.80;;;;;;;-146.29;100.00;59205.81;5035303;28;20430;-71
2024/02/25 04:46:57;;;;;;;6.23;3.17;;;;;;;-146.29;100.00;59205.81;5017028;28;20188;-70
2024/02/25 04:49:23;;;;;;;3.03;2.70;;;;;;;-146.29;100.00;59205.81;5024520;28;20243;-70
2024/02/25 04:51:49;;;;;;;3.00;2.70;;;;;;;-146.29;100.00;59205.81;5027002;28;20422;-72
2024/02/25 04:54:15;;;;;;;3.20;2.90;;;;;;;-146.29;100.00;59205.81;5028618;28;20216;-70
2024/02/25 04:56:42;;;;;;;3.50;2.97;;;;;;;-146.29;100.00;59205.81;5029205;28;20194;-71
2024/02/25 04:59:07;;;;;;;4.23;3.30;;;;;;;-146.29;100.00;59205.81;5027970;28;20448;-69
2024/02/25 05:01:33;;;;;;;3.10;2.80;;;;;;;-146.29;100.00;59205.81;5036064;28;20494;-71
2024/02/25 05:03:59;;;;;;;4.37;3.10;;;;;;;-146.29;100.00;59205.81;5031780;28;20198;-71
2024/02/25 05:06:24;;;;;;;3.03;2.60;;;;;;;-146.29;100.00;59205.81;5023578;28;20422;-69
2024/02/25 05:08:50;;;;;;;4.23;2.93;;;;;;;-146.29;100.00;59205.81;5027367;28;20223;-72
2024/02/25 05:11:15;;;;;;;3.67;3.03;;;;;;;-146.29;100.00;59205.81;5030452;28;20183;-72
2024/02/25 05:13:41;;;;;;;3.40;3.10;;;;;;;-146.29;100.00;59205.81;5039802;28;20279;-68
2024/02/25 05:16:08;;;;;;;4.20;3.30;;;;;;;-146.29;100.00;59205.81;5029120;28;20732;-69
2024/02/25 05:18:33;;;;;;;5.00;2.93;;;;;;;-146.29;100.00;59205.81;5032640;28;20571;-71
2024/02/25 05:21:01;;;;;;;3.40;3.10;;;;;;;-146.29;100.00;59205.81;5031339;28;20508;-72
2024/02/25 05:23:27;;;;;;;2.90;2.70;;;;;;;-146.29;100.00;59205.81;5023725;28;20203;-70
2024/02/25 05:25:52;;;;;;;3.40;3.10;;;;;;;-146.29;100.00;59205.81;5031003;28;20418;-70
2024/02/25 05:28:17;;;;;;;3.70;3.27;;;;;;;-146.29;100.00;59205.81;5031790;28;20588;-69
2024/02/25 05:30:43;;;;;;;5.03;2.87;;;;;;;-146.29;100.00;59205.81;5017129;28;20198;-70
2024/02/25 05:33:08;;;;;;;4.40;3.23;;;;;;;-146.29;100.00;59205.81;5021861;28;20187;-72
2024/02/25 05:35:36;;;;;;;8.40;3.50;;;;;;;-146.29;100.00;59205.81;5029231;28;20674;-69
2024/02/25 05:38:01;;;;;;;6.03;3.10;;;;;;;-146.29;100.00;59205.81;5035425;28;20179;-70
2024/02/25 05:40:27;;;;;;;4.13;3.10;;;;;;;-146.29;100.00;59205.81;5034065;28;20422;-69
2024/02/25 05:42:52;;;;;;;3.97;3.17;;;;;;;-146.29;100.00;59205.81;5022902;28;20258;-69
2024/02/25 05:45:18;;;;;;;3.80;3.43;;;;;;;-146.29;100.00;59205.81;5041466;28;20270;-71
2024/02/25 05:47:44;;;;;;;3.00;2.70;;;;;;;-146.29;100.00;59205.81;5034399;28;20180;-70
2024/02/25 05:50:09;;;;;;;3.30;3.00;;;;;;;-146.29;100.00;59205.81;5037467;28;20179;-72
2024/02/25 05:52:35;;;;;;;3.30;3.00;;;;;;;-146.29;100.00;59205.81;5033159;28;20187;-72
2024/02/25 05:55:00;;;;;;;3.83;3.30;;;;;;;-146.29;100.00;59205.81;5027768;28;20208;-71
2024/02/25 05:57:26;;;;;;;3.80;3.00;;;;;;;-146.29;100.00;59205.81;5025952;28;20271;-70
2024/02/25 05:59:51;;;;;;;3.50;3.20;;;;;;;-146.29;100.00;59205.81;5035955;28;20237;-70
2024/02/25 06:02:17;;;;;;;4.20;3.50;;;;;;;-146.29;100.00;59205.81;5029113;28;20180;-70
2024/02/25 06:04:42;;;;;;;4.37;3.60;;;;;;;-146.29;100.00;59205.81;5049229;28;20545;-70
2024/02/25 06:07:07;;;;;;;3.40;3.10;;;;;;;-146.29;100.00;59205.81;5032235;28;20229;-71
2024/02/25 06:09:33;;;;;;;4.50;3.13;;;;;;;-146.29;100.00;59205.81;5035583;28;20607;-70
2024/02/25 06:12:02;;;;;;;4.63;3.33;;;;;;;-146.29;100.00;59205.81;5030133;28;20236;-70
2024/02/25 06:14:27;;;;;;;4.80;3.07;;;;;;;-146.29;100.00;59205.81;5023641;28;20219;-71
2024/02/25 06:16:53;;;;;;;4.30;3.20;;;;;;;-146.29;100.00;59205.81;5028982;28;20520;-68
2024/02/25 06:19:18;;;;;;;4.00;2.70;;;;;;;-146.29;100.00;59205.81;5028254;28;20183;-73
2024/02/25 06:21:44;;;;;;;4.13;3.20;;;;;;;-146.29;100.00;59205.81;5029872;28;20890;-69
2024/02/25 06:24:09;;;;;;;3.97;3.57;;;;;;;-146.29;100.00;59205.81;5025943;28;20626;-71
2024/02/25 06:26:35;;;;;;;3.77;3.30;;;;;;;-146.29;100.00;59205.81;5030037;28;20276;-70
2024/02/25 06:29:00;;;;;;;3.87;3.30;;;;;;;-146.29;100.00;59205.81;5029257;28;20266;-71
2024/02/25 06:31:30;;;;;;;4.47;3.70;;;;;;;-146.29;100.00;59205.81;5029587;28;20278;-70
2024/02/25 06:33:55;;;;;;;6.10;4.00;;;;;;;-146.29;100.00;59205.81;5035724;28;22402;-68
2024/02/25 06:36:21;;;;;;;4.13;3.73;;;;;;;-146.29;100.00;59205.81;5023918;28;20480;-70
2024/02/25 06:38:47;;;;;;;6.20;4.30;;;;;;;-146.29;100.00;59205.81;5027790;28;20212;-69
2024/02/25 06:41:23;;;;;;;6.53;4.50;;;;;;;-146.29;100.00;59205.81;5029127;28;20180;-70
2024/02/25 06:43:49;;;;;;;9.47;4.40;;;;;;;-146.29;100.00;59205.81;5029260;28;20600;-69
2024/02/25 06:46:15;;;;;;;5.50;4.23;;;;;;;-146.29;100.00;59205.81;5034683;28;20471;-69
2024/02/25 06:48:40;;;;;;;5.27;4.00;;;;;;;-146.29;100.00;59205.81;5027984;28;20518;-69
2024/02/25 06:51:06;;;;;;;4.40;3.67;;;;;;;-146.29;100.00;59205.81;5029743;28;20271;-70
2024/02/25 06:53:33;;;;;;;5.03;3.90;;;;;;;-146.29;100.00;59205.81;5042594;28;20827;-70
2024/02/25 06:55:59;;;;;;;6.70;4.20;;;;;;;-146.29;100.00;59205.81;5032576;28;20290;-72
2024/02/25 06:58:25;;;;;;;7.13;3.60;;;;;;;-146.29;100.00;59205.81;5028777;28;20425;-72
2024/02/25 07:00:50;;;;;;;6.07;3.37;;;;;;;-146.29;100.00;59205.81;5039867;28;20207;-73
2024/02/25 07:03:15;;;;;;;5.73;3.63;;;;;;;-146.29;100.00;59205.81;5028979;28;20191;-73
2024/02/25 07:05:43;;;;;;;4.60;3.90;;;;;;;-146.29;100.00;59205.81;5028118;28;20345;-74
2024/02/25 07:08:08;;;;;;;3.83;3.30;;;;;;;-146.29;100.00;59205.81;5013933;28;20294;-71
2024/02/25 07:10:34;;;;;;;3.60;3.30;;;;;;;-146.29;100.00;59205.81;5028956;28;20514;-72
2024/02/25 07:12:59;;;;;;;14.07;10.27;;;;;;;-146.29;100.00;59205.81;5028331;28;20268;-72
2024/02/25 07:15:25;;;;;;;13.93;9.93;;;;;;;-146.29;100.00;59205.81;5029033;28;20216;-73
2024/02/25 07:17:53;;;;;;;9.67;6.43;;;;;;;-146.29;100.00;59205.81;5027729;28;20180;-74
2024/02/25 07:20:19;;;;;;;9.87;7.80;;;;;;;-146.29;100.00;59205.81;5028581;28;20426;-72
2024/02/25 07:22:44;;;;;;;9.33;6.13;;;;;;;-146.29;100.00;59205.81;5036954;28;20426;-72
2024/02/25 07:25:10;;;;;;;9.93;6.63;;;;;;;-146.29;100.00;59205.81;5028320;28;20450;-72
2024/02/25 07:27:35;;;;;;;10.80;6.97;;;;;;;-146.29;100.00;59205.81;5028918;28;20183;-73
2024/02/25 07:30:01;;;;;;;5.47;4.90;;;;;;;-146.29;100.00;59205.81;5012332;28;20184;-73
2024/02/25 07:32:26;;;;;;;8.20;6.10;;;;;;;-146.29;100.00;59205.81;5028024;28;20188;-74
2024/02/25 07:34:52;;;;;;;8.07;5.60;;;;;;;-146.29;100.00;59205.81;5027379;28;20298;-74
2024/02/25 07:37:17;;;;;;;6.80;5.20;;;;;;;-146.29;100.00;59205.81;5033283;28;20797;-73
2024/02/25 07:39:43;;;;;;;7.03;5.57;;;;;;;-146.29;100.00;59205.81;5038339;28;20214;-74
2024/02/25 07:42:08;;;;;;;8.00;5.90;;;;;;;-146.29;100.00;59205.81;5028739;28;20207;-72
2024/02/25 07:44:34;;;;;;;5.63;4.30;;;;;;;-146.29;100.00;59205.81;5031378;28;20286;-71
2024/02/25 07:46:59;;;;;;;7.93;5.70;;;;;;;-146.29;100.00;59205.81;5028963;28;20267;-72
2024/02/25 07:49:25;;;;;;;8.77;5.93;;;;;;;-146.29;100.00;59205.81;5028953;28;20210;-74
2024/02/25 07:51:50;;;;;;;7.60;5.00;;;;;;;-146.29;100.00;59205.81;5028074;28;20775;-72
2024/02/25 07:54:16;;;;;;;4.90;3.53;;;;;;;-146.29;100.00;59205.81;5028190;28;20605;-72
2024/02/25 07:56:41;;;;;;;4.47;3.13;;;;;;;-146.29;100.00;59205.81;5040110;28;20188;-73
2024/02/25 07:59:07;;;;;;;4.80;2.93;;;;;;;-146.29;100.00;59205.81;5027511;28;20187;-74
2024/02/25 08:01:36;;;;;;;3.80;2.90;;;;;;;-146.29;100.00;59205.81;5023023;28;20179;-74
2024/02/25 08:04:01;;;;;;;3.03;2.40;;;;;;;-146.29;100.00;59205.81;5028504;28;20762;-73
2024/02/25 08:06:28;;;;;;;4.03;3.20;;;;;;;-146.29;100.00;59205.81;5033236;28;20418;-72
2024/02/25 08:08:54;;;;;;;4.00;3.03;;;;;;;-146.29;100.00;59205.81;5027534;28;20180;-72
2024/02/25 08:11:20;;;;;;;3.13;2.50;;;;;;;-146.29;100.00;59205.81;5028080;28;20453;-72
2024/02/25 08:13:45;;;;;;;5.13;2.83;;;;;;;-146.29;100.00;59205.81;5009886;28;20449;-73
2024/02/25 08:16:11;;;;;;;4.97;3.00;;;;;;;-146.29;100.00;59205.81;5026124;28;20477;-72
2024/02/25 08:18:36;;;;;;;3.70;2.50;;;;;;;-146.29;100.00;59205.81;5027546;28;20278;-73
2024/02/25 08:21:02;;;;;;;2.67;2.00;;;;;;;-146.29;100.00;59205.81;5026935;28;20271;-73
2024/02/25 08:23:28;;;;;;;3.37;1.90;;;;;;;-146.29;100.00;59205.81;5030729;28;20606;-73
2024/02/25 08:25:53;;;;;;;3.20;2.00;;;;;;;-146.29;100.00;59205.81;5028658;28;20442;-73
2024/02/25 08:28:20;;;;;;;3.13;1.90;;;;;;;-146.29;100.00;59205.81;5031389;28;20184;-72
2024/02/25 08:30:46;;;;;;;4.63;2.20;;;;;;;-146.29;100.00;59205.81;5027232;28;20176;-73
2024/02/25 08:33:11;;;;;;;3.47;2.20;;;;;;;-146.29;100.00;59205.81;5031178;28;20448;-73
2024/02/25 08:35:37;;;;;;;3.07;1.90;;;;;;;-146.29;100.00;59205.81;5027452;28;20458;-73
2024/02/25 08:38:02;;;;;;;2.57;2.20;;;;;;;-146.29;100.00;59205.81;5027175;28;20552;-73
2024/02/25 08:40:30;;;;;;;1.80;1.70;;;;;;;-146.29;100.00;59205.81;5027510;28;20202;-73
2024/02/25 08:42:55;;;;;;;3.63;2.20;;;;;;;-146.29;100.00;59205.81;5027440;28;20184;-73
2024/02/25 08:45:21;;;;;;;3.13;2.03;;;;;;;-146.29;100.00;59205.81;5028966;28;20996;-73
2024/02/25 08:47:46;;;;;;;3.03;2.30;;;;;;;-146.29;100.00;59205.81;5031441;28;20184;-72
2024/02/25 08:50:12;;;;;;;3.40;2.53;;;;;;;-146.29;100.00;59205.81;5028051;28;20240;-72
2024/02/25 08:52:38;;;;;;;2.73;2.13;;;;;;;-146.29;100.00;59205.81;5028384;28;20180;-73
2024/02/25 08:55:03;;;;;;;1.80;1.70;;;;;;;-146.29;100.00;59205.81;5026693;28;21045;-73
2024/02/25 08:57:31;;;;;;;3.70;2.20;;;;;;;-146.29;100.00;59205.81;5027176;28;20188;-72
2024/02/25 08:59:57;;;;;;;2.33;2.13;;;;;;;-146.29;100.00;59205.81;5026681;28;20242;-72
2024/02/25 09:02:22;;;;;;;1.80;1.60;;;;;;;-146.29;100.00;59205.81;5024320;28;20469;-72
2024/02/25 09:04:50;;;;;;;4.40;2.07;;;;;;;-146.29;100.00;59205.81;5028037;28;20755;-71
2024/02/25 09:07:17;;;;;;;2.10;1.87;;;;;;;-146.29;100.00;59205.81;5026858;28;20553;-73
2024/02/25 09:09:42;;;;;;;6.40;2.27;;;;;;;-146.29;100.00;59205.81;5021925;28;20442;-72
2024/02/25 09:12:09;;;;;;;1.93;1.83;;;;;;;-146.29;100.00;59205.81;5030806;28;20430;-73
2024/02/25 09:14:35;;;;;;;2.77;1.90;;;;;;;-146.29;100.00;59205.81;5012748;28;20264;-73
2024/02/25 09:17:00;;;;;;;3.17;2.20;;;;;;;-146.29;100.00;59205.81;5037351;28;20791;-72
2024/02/25 09:19:26;;;;;;;5.10;2.70;;;;;;;-146.29;100.00;59205.81;5034168;28;20211;-72
2024/02/25 09:21:51;;;;;;;2.60;2.33;;;;;;;-146.29;100.00;59205.81;5034359;28;20183;-73
2024/02/25 09:24:17;;;;;;;2.40;2.20;;;;;;;-146.29;100.00;59205.81;5028893;28;20709;-73
2024/02/25 09:26:45;;;;;;;3.40;1.80;;;;;;;-146.29;100.00;59205.81;5035110;28;20178;-72
2024/02/25 09:29:12;;;;;;;4.73;2.50;;;;;;;-146.29;100.00;59205.81;5030306;28;20184;-73
2024/02/25 09:31:37;;;;;;;3.43;2.30;;;;;;;-146.29;100.00;59205.81;4998269;28;20937;-72
2024/02/25 09:34:04;;;;;;;2.53;1.97;;;;;;;-146.29;100.00;59205.81;5028004;28;20446;-71
2024/02/25 09:36:30;;;;;;;2.80;1.97;;;;;;;-146.29;100.00;59205.81;5031011;28;20186;-74
2024/02/25 09:38:57;;;;;;;3.47;2.13;;;;;;;-146.29;100.00;59205.81;5027747;28;20895;-72
2024/02/25 09:41:29;;;;;;;2.73;1.93;;;;;;;-146.29;100.00;59205.81;5035407;28;20184;-73
2024/02/25 09:43:55;;;;;;;2.40;1.80;;;;;;;-146.29;100.00;59205.81;5029172;28;20446;-72
2024/02/25 09:46:24;;;;;;;3.57;2.00;;;;;;;-146.29;100.00;59205.81;5022743;28;20422;-72
2024/02/25 09:48:52;;;;;;;3.43;1.70;;;;;;;-146.29;100.00;59205.81;5030643;28;20819;-72
2024/02/25 09:51:21;;;;;;;3.27;1.63;;;;;;;-146.29;100.00;59205.81;5028411;28;20925;-71
2024/02/25 09:53:48;;;;;;;5.70;3.20;;;;;;;-146.29;100.00;59205.81;5030148;28;20527;-72
2024/02/25 09:56:14;;;;;;;3.47;2.10;;;;;;;-146.29;100.00;59205.81;5027941;28;20539;-71
2024/02/25 09:58:39;;;;;;;3.17;1.80;;;;;;;-146.29;100.00;59205.81;5027223;28;20509;-72
2024/02/25 10:01:05;;;;;;;1.80;1.27;;;;;;;-146.29;100.00;59205.81;5029709;28;20180;-73
2024/02/25 10:03:30;;;;;;;2.63;1.53;;;;;;;-146.29;100.00;59205.81;5031730;28;20202;-74
2024/02/25 10:05:56;;;;;;;2.13;1.63;;;;;;;-146.29;100.00;59205.81;5033049;28;20275;-73
2024/02/25 10:08:21;;;;;;;5.00;2.77;;;;;;;-146.29;100.00;59205.81;5031139;28;20175;-73
2024/02/25 10:10:47;;;;;;;4.00;2.70;;;;;;;-146.29;100.00;59205.81;5030502;28;20184;-73
2024/02/25 10:13:13;;;;;;;4.00;2.60;;;;;;;-146.29;100.00;59205.81;5033662;28;20255;-70
2024/02/25 10:15:39;;;;;;;2.60;2.23;;;;;;;-146.29;100.00;59205.81;5019043;28;20669;-71
2024/02/25 10:18:05;;;;;;;2.57;1.80;;;;;;;-146.29;100.00;59205.81;5046448;28;20440;-72
2024/02/25 10:20:30;;;;;;;2.00;1.47;;;;;;;-146.29;100.00;59205.81;5033041;28;20180;-71
2024/02/25 10:23:09;;;;;;;1.80;1.13;;;;;;;-146.29;100.00;59205.81;5037314;28;20246;-72
2024/02/25 10:25:35;;;;;;;1.80;1.17;;;;;;;-146.29;100.00;59205.81;5024695;28;20199;-71
2024/02/25 10:28:16;;;;;;;1.17;0.90;;;;;;;-146.29;100.00;59205.81;5030997;28;20418;-72
2024/02/25 10:31:14;;;;;;;2.20;1.30;;;;;;;-146.29;100.00;59205.81;5044097;28;20919;-72
2024/02/25 10:33:43;;;;;;;1.83;1.20;;;;;;;-146.29;100.00;59205.81;5032397;28;20431;-71
2024/02/25 10:36:13;;;;;;;1.57;1.10;;;;;;;-146.29;100.00;59205.81;5028724;28;20776;-72
2024/02/25 10:38:40;;;;;;;1.10;0.83;;;;;;;-146.29;100.00;59205.81;5032693;28;20476;-71
2024/02/25 10:41:10;;;;;;;1.10;0.80;;;;;;;-146.29;100.00;59205.81;5031640;28;20437;-71
2024/02/25 10:43:36;;;;;;;1.10;0.80;;;;;;;-146.29;100.00;59205.81;5032988;28;20492;-71
2024/02/25 10:46:30;;;;;;;0.97;0.80;;;;;;;-146.29;100.00;59205.81;5037420;28;20426;-72
2024/02/25 10:48:59;;;;;;;1.00;0.70;;;;;;;-146.29;100.00;59205.81;5034352;28;20419;-73
2024/02/25 10:51:25;;;;;;;1.67;0.80;;;;;;;-146.29;100.00;59205.81;5038623;28;20430;-74
2024/02/25 10:53:52;;;;;;;1.10;0.77;;;;;;;-146.29;100.00;59205.81;5031149;28;20441;-71
2024/02/25 10:56:18;;;;;;;1.00;0.80;;;;;;;-146.29;100.00;59205.81;5028543;28;20211;-74
2024/02/25 10:58:45;;;;;;;1.40;0.80;;;;;;;-146.29;100.00;59205.81;5033493;28;20778;-75
2024/02/25 11:01:11;;;;;;;0.90;0.60;;;;;;;-146.29;100.00;59205.81;5033583;28;21061;-73
2024/02/25 11:03:37;;;;;;;1.10;0.80;;;;;;;-146.29;100.00;59205.81;5033775;28;20506;-72
2024/02/25 11:06:07;;;;;;;1.20;0.70;;;;;;;-146.29;100.00;59205.81;5030408;28;20548;-71